createdAt,value
2019-02-12T00:02:26.206Z,101601.69
2019-02-12T00:04:59.758Z,101610.05
2019-02-12T00:07:33.260Z,101603.19
2019-02-12T00:10:07.181Z,101598.45
2019-02-12T00:12:40.718Z,101598.88
2019-02-12T00:15:14.176Z,101604.46
2019-02-12T00:17:47.710Z,101610.77
2019-02-12T00:20:21.350Z,101616.78
2019-02-12T00:22:54.935Z,101611.74
2019-02-12T00:25:28.622Z,101614.34
2019-02-12T00:28:02.253Z,101613.49
2019-02-12T00:30:35.869Z,101609.73
2019-02-12T00:33:09.403Z,101609.27
2019-02-12T00:35:43.051Z,101600.47
2019-02-12T00:38:16.580Z,101609.30
2019-02-12T00:40:50.292Z,101623.22
2019-02-12T00:43:23.797Z,101623.53
2019-02-12T00:45:57.360Z,101624.48
2019-02-12T00:48:30.928Z,101611.41
2019-02-12T00:51:04.465Z,101632.14
2019-02-12T00:53:37.834Z,101629.61
2019-02-12T00:56:11.359Z,101619.97
2019-02-12T00:58:44.798Z,101623.69
2019-02-12T01:01:18.347Z,101624.62
2019-02-12T01:03:51.818Z,101631.39
2019-02-12T01:06:25.360Z,101632.24
2019-02-12T01:08:58.877Z,101627.64
2019-02-12T01:11:32.351Z,101617.10
2019-02-12T01:14:05.799Z,101630.59
2019-02-12T01:16:39.417Z,101627.97
2019-02-12T01:19:12.925Z,101638.86
2019-02-12T01:21:46.363Z,101630.73
2019-02-12T01:24:19.873Z,101630.41
2019-02-12T01:26:53.381Z,101631.30
2019-02-12T01:29:26.880Z,101627.83
2019-02-12T01:32:00.360Z,101615.14
2019-02-12T01:34:33.859Z,101628.86
2019-02-12T01:37:07.382Z,101623.83
2019-02-12T01:39:40.873Z,101631.02
2019-02-12T01:42:14.406Z,101639.02
2019-02-12T01:44:47.855Z,101636.42
2019-02-12T01:47:21.385Z,101642.34
2019-02-12T01:49:54.844Z,101643.57
2019-02-12T01:52:28.354Z,101646.62
2019-02-12T01:55:01.903Z,101647.00
2019-02-12T01:57:35.623Z,101653.33
2019-02-12T02:00:11.634Z,101655.97
2019-02-12T02:02:45.282Z,101655.97
2019-02-12T02:05:18.785Z,101659.36
2019-02-12T02:07:52.393Z,101650.57
2019-02-12T02:10:25.835Z,101655.27
2019-02-12T02:12:59.466Z,101663.73
2019-02-12T02:15:33.003Z,101669.61
2019-02-12T02:18:06.486Z,101670.50
2019-02-12T02:20:39.920Z,101669.27
2019-02-12T02:23:13.487Z,101675.20
2019-02-12T02:25:46.975Z,101677.22
2019-02-12T02:28:20.538Z,101676.66
2019-02-12T02:30:54.077Z,101676.70
2019-02-12T02:33:27.492Z,101677.02
2019-02-12T02:36:00.980Z,101676.17
2019-02-12T02:38:34.491Z,101682.38
2019-02-12T02:41:08.056Z,101672.73
2019-02-12T02:43:41.761Z,101681.26
2019-02-12T02:46:15.337Z,101683.17
2019-02-12T02:48:48.829Z,101679.89
2019-02-12T02:51:22.647Z,101671.91
2019-02-12T02:53:56.156Z,101675.91
2019-02-12T02:56:29.695Z,101675.91
2019-02-12T02:59:03.073Z,101668.66
2019-02-12T03:01:36.507Z,101682.14
2019-02-12T03:04:09.848Z,101687.22
2019-02-12T03:06:43.292Z,101678.50
2019-02-12T03:09:17.233Z,101681.98
2019-02-12T03:11:50.707Z,101691.66
2019-02-12T03:14:24.108Z,101692.08
2019-02-12T03:16:57.499Z,101695.84
2019-02-12T03:19:30.882Z,101696.36
2019-02-12T03:22:04.419Z,101707.64
2019-02-12T03:24:37.869Z,101704.30
2019-02-12T03:27:11.215Z,101711.59
2019-02-12T03:29:44.661Z,101706.88
2019-02-12T03:32:17.989Z,101705.72
2019-02-12T03:34:51.357Z,101690.81
2019-02-12T03:37:24.800Z,101706.98
2019-02-12T03:39:58.211Z,101694.66
2019-02-12T03:42:31.569Z,101694.66
2019-02-12T03:45:07.653Z,101692.56
2019-02-12T03:47:41.238Z,101693.72
2019-02-12T03:50:14.770Z,101702.65
2019-02-12T03:52:48.175Z,101700.12
2019-02-12T03:55:21.649Z,101702.97
2019-02-12T03:57:55.071Z,101707.42
2019-02-12T04:00:28.514Z,101710.97
2019-02-12T04:03:03.784Z,101711.02
2019-02-12T04:05:38.491Z,101722.02
2019-02-12T04:08:11.987Z,101724.98
2019-02-12T04:10:45.376Z,101719.52
2019-02-12T04:13:18.988Z,101722.23
2019-02-12T04:15:52.308Z,101729.42
2019-02-12T04:18:25.785Z,101728.68
2019-02-12T04:20:59.344Z,101740.11
2019-02-12T04:23:32.710Z,101733.64
2019-02-12T04:26:06.054Z,101736.19
2019-02-12T04:28:39.533Z,101729.00
2019-02-12T04:31:12.987Z,101732.45
2019-02-12T04:33:46.428Z,101745.28
2019-02-12T04:36:19.901Z,101744.59
2019-02-12T04:38:53.344Z,101743.47
2019-02-12T04:41:27.264Z,101740.94
2019-02-12T04:44:00.627Z,101743.58
2019-02-12T04:46:34.007Z,101739.41
2019-02-12T04:49:07.509Z,101744.47
2019-02-12T04:51:40.855Z,101743.16
2019-02-12T04:54:14.349Z,101745.33
2019-02-12T04:56:47.834Z,101749.66
2019-02-12T04:59:22.900Z,101753.94
2019-02-12T05:01:56.324Z,101752.63
2019-02-12T05:04:29.768Z,101753.73
2019-02-12T05:07:03.290Z,101753.00
2019-02-12T05:09:40.098Z,101753.95
2019-02-12T05:12:15.228Z,101766.30
2019-02-12T05:14:48.717Z,101774.74
2019-02-12T05:17:22.212Z,101774.88
2019-02-12T05:19:55.636Z,101772.11
2019-02-12T05:22:29.113Z,101782.30
2019-02-12T05:25:02.459Z,101772.69
2019-02-12T05:27:35.896Z,101788.22
2019-02-12T05:30:14.240Z,101782.72
2019-02-12T05:32:47.646Z,101780.54
2019-02-12T05:35:21.203Z,101785.63
2019-02-12T05:37:54.566Z,101787.62
2019-02-12T05:40:27.953Z,101783.44
2019-02-12T05:43:01.318Z,101782.13
2019-02-12T05:45:34.647Z,101784.29
2019-02-12T05:48:08.002Z,101789.31
2019-02-12T05:50:41.320Z,101798.48
2019-02-12T05:53:14.787Z,101793.95
2019-02-12T05:55:48.120Z,101805.02
2019-02-12T05:58:21.541Z,101806.65
2019-02-12T06:00:54.925Z,101806.83
2019-02-12T06:03:28.281Z,101814.78
2019-02-12T06:06:01.618Z,101816.48
2019-02-12T06:08:35.048Z,101807.00
2019-02-12T06:11:08.421Z,101816.27
2019-02-12T06:13:41.939Z,101815.95
2019-02-12T06:16:15.418Z,101833.28
2019-02-12T06:18:48.874Z,101830.28
2019-02-12T06:21:22.351Z,101834.55
2019-02-12T06:23:55.838Z,101833.34
2019-02-12T06:26:29.295Z,101836.84
2019-02-12T06:29:02.791Z,101838.06
2019-02-12T06:31:36.265Z,101834.14
2019-02-12T06:34:09.686Z,101832.31
2019-02-12T06:36:43.085Z,101834.48
2019-02-12T06:39:16.590Z,101834.07
2019-02-12T06:41:49.922Z,101831.00
2019-02-12T06:44:23.372Z,101834.00
2019-02-12T06:46:56.723Z,101834.00
2019-02-12T06:49:30.197Z,101841.61
2019-02-12T06:52:03.552Z,101833.77
2019-02-12T06:54:37.268Z,101846.59
2019-02-12T06:57:10.853Z,101847.42
2019-02-12T06:59:44.236Z,101850.02
2019-02-12T07:02:52.820Z,101858.91
2019-02-12T07:05:26.255Z,101856.43
2019-02-12T07:08:11.630Z,101856.48
2019-02-12T07:10:45.539Z,101858.13
2019-02-12T07:13:58.791Z,101852.09
2019-02-12T07:16:38.154Z,101863.42
2019-02-12T07:19:20.496Z,101868.22
2019-02-12T07:22:02.876Z,101875.77
2019-02-12T07:24:45.133Z,101875.77
2019-02-12T07:27:43.045Z,101878.50
2019-02-12T07:30:31.445Z,101880.71
2019-02-12T07:33:35.659Z,101880.41
2019-02-12T07:36:24.381Z,101895.22
2019-02-12T07:39:10.022Z,101884.11
2019-02-12T07:41:46.618Z,101901.45
2019-02-12T07:44:41.100Z,101901.45
2019-02-12T07:47:29.391Z,101906.54
2019-02-12T07:50:18.184Z,101908.59
2019-02-12T07:52:54.780Z,101916.83
2019-02-12T07:55:37.359Z,101921.58
2019-02-12T07:58:22.492Z,101927.15
2019-02-12T08:01:31.784Z,101938.22
2019-02-12T08:04:41.672Z,101944.07
2019-02-12T08:07:37.770Z,101946.06
2019-02-12T08:10:22.832Z,101949.20
2019-02-12T08:13:02.374Z,101949.73
2019-02-12T08:16:08.252Z,101947.36
2019-02-12T08:19:01.279Z,101949.74
2019-02-12T08:21:37.807Z,101956.22
2019-02-12T08:24:35.730Z,101958.65
2019-02-12T08:27:14.885Z,101959.86
2019-02-12T08:29:57.362Z,101969.12
2019-02-12T08:32:42.663Z,101965.69
2019-02-12T08:35:35.639Z,101979.61
2019-02-12T08:38:21.073Z,101984.44
2019-02-12T08:41:19.894Z,101983.91
2019-02-12T08:44:11.281Z,101984.69
2019-02-12T08:47:02.367Z,101985.53
2019-02-12T08:49:44.703Z,101989.39
2019-02-12T08:52:51.233Z,101981.15
2019-02-12T08:55:36.959Z,102005.28
2019-02-12T08:58:34.416Z,102006.55
2019-02-12T09:01:07.595Z,102002.53
2019-02-12T09:04:06.041Z,102002.53
2019-02-12T09:06:54.590Z,102020.16
2019-02-12T09:09:53.625Z,102020.16
2019-02-12T09:12:42.485Z,102023.91
2019-02-12T09:15:49.192Z,102036.50
2019-02-12T09:18:25.748Z,102041.98
2019-02-12T09:21:10.823Z,102041.63
2019-02-12T09:24:13.189Z,102040.78
2019-02-12T09:26:55.477Z,102038.44
2019-02-12T09:29:40.996Z,102053.56
2019-02-12T09:32:23.135Z,102050.63
2019-02-12T09:35:21.093Z,102060.98
2019-02-12T09:38:03.105Z,102055.49
2019-02-12T09:40:42.592Z,102059.34
2019-02-12T09:43:54.978Z,102059.53
2019-02-12T09:46:55.828Z,102049.23
2019-02-12T09:49:58.190Z,102064.57
2019-02-12T09:53:00.217Z,102059.55
2019-02-12T09:56:07.446Z,102059.81
2019-02-12T09:58:46.919Z,102072.00
2019-02-12T10:01:55.212Z,102066.33
2019-02-12T10:04:48.289Z,102070.98
2019-02-12T10:07:27.352Z,102075.80
2019-02-12T10:10:13.077Z,102082.84
2019-02-12T10:12:52.406Z,102080.38
2019-02-12T10:15:45.668Z,102088.70
2019-02-12T10:18:31.179Z,102095.05
2019-02-12T10:21:31.349Z,102084.81
2019-02-12T10:24:07.873Z,102098.54
2019-02-12T10:26:53.530Z,102095.86
2019-02-12T10:29:32.691Z,102100.94
2019-02-12T10:32:08.636Z,102100.39
2019-02-12T10:34:40.061Z,102102.91
2019-02-12T10:37:13.384Z,102110.41
2019-02-12T10:39:46.748Z,102104.36
2019-02-12T10:42:20.073Z,102112.00
2019-02-12T10:44:53.494Z,102098.69
2019-02-12T10:47:26.914Z,102109.00
2019-02-12T10:50:00.365Z,102101.81
2019-02-12T10:52:33.662Z,102105.14
2019-02-12T10:55:07.285Z,102099.03
2019-02-12T10:57:40.622Z,102103.18
2019-02-12T11:00:14.719Z,102106.52
2019-02-12T11:02:48.095Z,102104.84
2019-02-12T11:05:21.525Z,102109.06
2019-02-12T11:07:54.849Z,102108.67
2019-02-12T11:10:28.215Z,102109.59
2019-02-12T11:13:01.562Z,102099.00
2019-02-12T11:15:34.974Z,102104.28
2019-02-12T11:18:08.373Z,102104.36
2019-02-12T11:20:41.798Z,102097.61
2019-02-12T11:23:15.242Z,102103.22
2019-02-12T11:25:48.766Z,102110.80
2019-02-12T11:28:22.170Z,102113.88
2019-02-12T11:30:55.589Z,102108.14
2019-02-12T11:33:28.914Z,102121.09
2019-02-12T11:36:02.279Z,102119.41
2019-02-12T11:38:35.604Z,102117.41
2019-02-12T11:41:09.113Z,102112.79
2019-02-12T11:43:42.444Z,102107.30
2019-02-12T11:46:15.800Z,102117.52
2019-02-12T11:48:49.135Z,102115.85
2019-02-12T11:51:22.482Z,102115.55
2019-02-12T11:53:55.809Z,102115.23
2019-02-12T11:56:29.238Z,102119.61
2019-02-12T11:59:02.566Z,102117.06
2019-02-12T12:01:35.931Z,102110.19
2019-02-12T12:04:09.303Z,102111.84
2019-02-12T12:06:42.789Z,102115.27
2019-02-12T12:09:16.127Z,102117.70
2019-02-12T12:11:49.594Z,102113.44
2019-02-12T12:14:23.073Z,102125.44
2019-02-12T12:16:56.572Z,102121.17
2019-02-12T12:19:30.040Z,102110.12
2019-02-12T12:22:03.488Z,102124.65
2019-02-12T12:24:36.982Z,102125.47
2019-02-12T12:27:10.303Z,102127.47
2019-02-12T12:29:43.656Z,102128.28
2019-02-12T12:32:16.990Z,102132.42
2019-02-12T12:34:50.353Z,102127.79
2019-02-12T12:37:23.686Z,102139.63
2019-02-12T12:39:57.076Z,102133.72
2019-02-12T12:42:30.411Z,102140.20
2019-02-12T12:45:04.836Z,102129.16
2019-02-12T12:47:38.239Z,102127.50
2019-02-12T12:50:12.743Z,102117.25
2019-02-12T12:52:46.274Z,102118.98
2019-02-12T12:55:19.807Z,102122.05
2019-02-12T12:57:54.177Z,102130.53
2019-02-12T13:00:27.826Z,102131.82
2019-02-12T13:03:01.343Z,102131.84
2019-02-12T13:05:34.773Z,102130.55
2019-02-12T13:08:08.196Z,102134.79
2019-02-12T13:10:41.646Z,102133.51
2019-02-12T13:13:16.867Z,102130.91
2019-02-12T13:15:50.250Z,102133.44
2019-02-12T13:18:23.610Z,102136.00
2019-02-12T13:20:57.040Z,102141.52
2019-02-12T13:23:30.401Z,102133.91
2019-02-12T13:26:03.750Z,102134.70
2019-02-12T13:28:37.280Z,102135.50
2019-02-12T13:31:10.654Z,102144.39
2019-02-12T13:33:44.081Z,102145.29
2019-02-12T13:36:17.502Z,102141.47
2019-02-12T13:38:50.879Z,102142.72
2019-02-12T13:41:24.378Z,102148.65
2019-02-12T13:43:58.053Z,102136.25
2019-02-12T13:46:31.515Z,102146.89
2019-02-12T13:49:04.859Z,102144.20
2019-02-12T13:51:38.206Z,102151.09
2019-02-12T13:54:11.560Z,102160.93
2019-02-12T13:56:45.026Z,102164.36
2019-02-12T13:59:18.422Z,102158.02
2019-02-12T14:01:51.949Z,102169.17
2019-02-12T14:04:25.286Z,102163.19
2019-02-12T14:06:58.745Z,102163.66
2019-02-12T14:09:32.116Z,102166.23
2019-02-12T14:12:05.590Z,102182.30
2019-02-12T14:14:38.949Z,102172.98
2019-02-12T14:17:12.315Z,102176.80
2019-02-12T14:19:45.847Z,102174.30
2019-02-12T14:22:19.287Z,102170.81
2019-02-12T14:24:52.944Z,102183.11
2019-02-12T14:27:26.337Z,102192.05
2019-02-12T14:30:00.938Z,102183.51
2019-02-12T14:32:34.307Z,102192.03
2019-02-12T14:35:09.791Z,102200.16
2019-02-12T14:37:43.148Z,102197.45
2019-02-12T14:40:16.941Z,102195.86
2019-02-12T14:42:50.423Z,102185.48
2019-02-12T14:45:23.823Z,102190.32
2019-02-12T14:47:57.184Z,102189.11
2019-02-12T14:50:30.642Z,102195.52
2019-02-12T14:53:04.005Z,102186.61
2019-02-12T14:55:37.403Z,102180.94
2019-02-12T14:58:10.831Z,102181.39
2019-02-12T15:00:44.263Z,102183.38
2019-02-12T15:03:17.691Z,102193.56
2019-02-12T15:05:51.121Z,102182.93
2019-02-12T15:08:24.551Z,102189.80
2019-02-12T15:10:57.900Z,102185.16
2019-02-12T15:13:31.451Z,102184.23
2019-02-12T15:16:04.962Z,102183.33
2019-02-12T15:18:38.458Z,102186.34
2019-02-12T15:21:11.919Z,102192.61
2019-02-12T15:23:45.351Z,102191.78
2019-02-12T15:26:18.688Z,102207.55
2019-02-12T15:28:52.116Z,102214.39
2019-02-12T15:31:25.498Z,102210.11
2019-02-12T15:33:58.894Z,102213.54
2019-02-12T15:36:32.199Z,102205.94
2019-02-12T15:39:05.737Z,102205.00
2019-02-12T15:41:39.350Z,102188.44
2019-02-12T15:44:12.799Z,102195.72
2019-02-12T15:46:46.172Z,102199.05
2019-02-12T15:49:19.607Z,102191.81
2019-02-12T15:51:52.979Z,102200.69
2019-02-12T15:54:26.400Z,102204.85
2019-02-12T15:56:59.833Z,102205.24
2019-02-12T15:59:33.647Z,102209.89
2019-02-12T16:02:07.142Z,102214.11
2019-02-12T16:04:40.551Z,102214.97
2019-02-12T16:07:13.926Z,102222.66
2019-02-12T16:09:47.336Z,102226.48
2019-02-12T16:12:20.717Z,102220.92
2019-02-12T16:14:54.088Z,102220.45
2019-02-12T16:17:27.449Z,102214.97
2019-02-12T16:20:00.811Z,102220.92
2019-02-12T16:22:34.177Z,102220.49
2019-02-12T16:25:09.927Z,102219.61
2019-02-12T16:27:43.275Z,102219.64
2019-02-12T16:30:18.313Z,102223.92
2019-02-12T16:32:51.678Z,102221.77
2019-02-12T16:35:25.117Z,102229.45
2019-02-12T16:37:58.546Z,102232.40
2019-02-12T16:40:31.867Z,102230.70
2019-02-12T16:43:05.628Z,102227.69
2019-02-12T16:45:45.230Z,102231.09
2019-02-12T16:48:18.599Z,102229.36
2019-02-12T16:50:51.924Z,102239.98
2019-02-12T16:53:25.290Z,102243.39
2019-02-12T16:55:58.647Z,102249.11
2019-02-12T16:58:32.062Z,102243.43
2019-02-12T17:01:05.645Z,102247.30
2019-02-12T17:03:39.187Z,102247.76
2019-02-12T17:06:12.990Z,102246.91
2019-02-12T17:08:46.364Z,102249.84
2019-02-12T17:11:19.761Z,102245.59
2019-02-12T17:13:53.192Z,102246.45
2019-02-12T17:16:26.532Z,102244.36
2019-02-12T17:18:59.913Z,102241.73
2019-02-12T17:21:33.267Z,102240.88
2019-02-12T17:24:06.666Z,102235.31
2019-02-12T17:26:40.039Z,102241.69
2019-02-12T17:29:13.398Z,102236.47
2019-02-12T17:31:46.773Z,102239.02
2019-02-12T17:34:20.202Z,102231.75
2019-02-12T17:36:53.613Z,102238.97
2019-02-12T17:39:26.965Z,102235.11
2019-02-12T17:42:00.465Z,102232.89
2019-02-12T17:44:33.968Z,102224.39
2019-02-12T17:47:07.314Z,102224.25
2019-02-12T17:49:40.703Z,102219.92
2019-02-12T17:52:14.208Z,102223.60
2019-02-12T17:54:47.661Z,102235.39
2019-02-12T17:57:21.046Z,102240.81
2019-02-12T17:59:54.488Z,102233.96
2019-02-12T18:02:27.847Z,102238.05
2019-02-12T18:05:01.854Z,102246.02
2019-02-12T18:07:35.188Z,102242.50
2019-02-12T18:10:10.667Z,102241.83
2019-02-12T18:12:44.063Z,102238.88
2019-02-12T18:15:17.526Z,102234.24
2019-02-12T18:17:50.857Z,102240.09
2019-02-12T18:20:26.523Z,102237.16
2019-02-12T18:22:59.359Z,102235.41
2019-02-12T18:25:32.871Z,102228.25
2019-02-12T18:28:06.278Z,102227.73
2019-02-12T18:30:39.640Z,102228.61
2019-02-12T18:33:13.123Z,102228.56
2019-02-12T18:35:46.483Z,102232.38
2019-02-12T18:38:19.887Z,102235.66
2019-02-12T18:40:53.285Z,102232.63
2019-02-12T18:43:26.610Z,102236.76
2019-02-12T18:46:00.088Z,102236.28
2019-02-12T18:48:33.545Z,102243.05
2019-02-12T18:51:06.898Z,102234.50
2019-02-12T18:53:40.273Z,102238.20
2019-02-12T18:56:13.729Z,102237.66
2019-02-12T18:58:47.223Z,102237.64
2019-02-12T19:01:20.587Z,102241.81
2019-02-12T19:03:53.981Z,102252.34
2019-02-12T19:06:27.447Z,102247.57
2019-02-12T19:09:00.817Z,102245.82
2019-02-12T19:11:34.182Z,102237.63
2019-02-12T19:14:07.528Z,102240.59
2019-02-12T19:16:40.955Z,102233.16
2019-02-12T19:19:14.328Z,102233.55
2019-02-12T19:21:47.800Z,102224.14
2019-02-12T19:24:21.164Z,102230.91
2019-02-12T19:26:54.580Z,102236.93
2019-02-12T19:29:28.055Z,102224.93
2019-02-12T19:32:01.463Z,102237.30
2019-02-12T19:34:34.798Z,102233.89
2019-02-12T19:37:08.292Z,102233.89
2019-02-12T19:39:41.676Z,102227.47
2019-02-12T19:42:15.086Z,102228.33
2019-02-12T19:44:48.482Z,102236.00
2019-02-12T19:47:21.853Z,102236.50
2019-02-12T19:49:55.277Z,102233.67
2019-02-12T19:52:28.685Z,102237.14
2019-02-12T19:55:02.170Z,102237.62
2019-02-12T19:57:35.554Z,102240.64
2019-02-12T20:00:19.508Z,102244.05
2019-02-12T20:02:52.912Z,102235.08
2019-02-12T20:05:26.281Z,102244.09
2019-02-12T20:07:59.727Z,102240.42
2019-02-12T20:10:33.244Z,102236.61
2019-02-12T20:13:06.701Z,102230.88
2019-02-12T20:15:40.139Z,102236.57
2019-02-12T20:18:13.937Z,102222.02
2019-02-12T20:20:47.524Z,102228.09
2019-02-12T20:23:21.147Z,102227.30
2019-02-12T20:25:54.520Z,102223.11
2019-02-12T20:28:27.941Z,102226.98
2019-02-12T20:31:02.703Z,102223.50
2019-02-12T20:33:36.171Z,102221.30
2019-02-12T20:36:09.662Z,102220.28
2019-02-12T20:38:43.264Z,102209.80
2019-02-12T20:41:17.301Z,102216.95
2019-02-12T20:43:51.056Z,102216.45
2019-02-12T20:46:25.171Z,102225.30
2019-02-12T20:48:58.749Z,102221.42
2019-02-12T20:51:33.088Z,102218.41
2019-02-12T20:54:06.791Z,102218.41
2019-02-12T20:56:40.520Z,102222.77
2019-02-12T20:59:14.261Z,102214.03
2019-02-12T21:01:48.733Z,102212.77
2019-02-12T21:04:22.698Z,102218.59
2019-02-12T21:06:56.432Z,102211.42
2019-02-12T21:09:31.335Z,102214.16
2019-02-12T21:12:05.050Z,102214.70
2019-02-12T21:14:38.716Z,102218.52
2019-02-12T21:17:12.175Z,102213.84
2019-02-12T21:19:45.640Z,102223.17
2019-02-12T21:22:19.301Z,102222.40
2019-02-12T21:24:53.674Z,102227.91
2019-02-12T21:27:27.093Z,102225.38
2019-02-12T21:30:00.545Z,102225.01
2019-02-12T21:32:34.059Z,102220.80
2019-02-12T21:35:10.041Z,102226.83
2019-02-12T21:37:43.522Z,102227.73
2019-02-12T21:40:37.766Z,102226.45
2019-02-12T21:43:11.212Z,102220.03
2019-02-12T21:45:44.566Z,102228.09
2019-02-12T21:48:17.950Z,102221.94
2019-02-12T21:50:51.324Z,102225.77
2019-02-12T21:53:24.706Z,102230.58
2019-02-12T21:55:58.188Z,102234.78
2019-02-12T21:58:31.547Z,102230.80
2019-02-12T22:01:05.001Z,102236.27
2019-02-12T22:03:38.460Z,102244.86
2019-02-12T22:06:11.857Z,102253.39
2019-02-12T22:08:45.287Z,102252.92
2019-02-12T22:11:18.687Z,102245.81
2019-02-12T22:13:52.079Z,102253.60
2019-02-12T22:16:25.439Z,102254.13
2019-02-12T22:18:58.768Z,102253.53
2019-02-12T22:21:31.976Z,102250.00
2019-02-12T22:24:05.377Z,102254.82
2019-02-12T22:26:38.732Z,102255.25
2019-02-12T22:29:12.065Z,102261.61
2019-02-12T22:31:45.418Z,102260.33
2019-02-12T22:34:18.753Z,102258.68
2019-02-12T22:36:52.132Z,102255.41
2019-02-12T22:39:25.555Z,102255.77
2019-02-12T22:41:59.038Z,102255.77
2019-02-12T22:44:32.422Z,102253.29
2019-02-12T22:47:05.801Z,102249.47
2019-02-12T22:49:39.146Z,102239.59
2019-02-12T22:52:12.633Z,102243.57
2019-02-12T22:54:45.941Z,102222.41
2019-02-12T22:57:19.299Z,102223.95
2019-02-12T22:59:52.632Z,102225.00
2019-02-12T23:02:26.002Z,102222.98
2019-02-12T23:05:00.731Z,102218.31
2019-02-12T23:07:34.031Z,102230.99
2019-02-12T23:10:09.505Z,102224.35
2019-02-12T23:12:43.047Z,102238.11
2019-02-12T23:15:16.381Z,102242.78
2019-02-12T23:17:49.778Z,102252.97
2019-02-12T23:20:23.202Z,102246.55
2019-02-12T23:22:56.765Z,102246.86
2019-02-12T23:25:30.132Z,102249.98
2019-02-12T23:28:03.547Z,102255.09
2019-02-12T23:30:36.941Z,102255.30
2019-02-12T23:33:10.366Z,102255.30
2019-02-12T23:35:43.696Z,102268.09
2019-02-12T23:38:17.256Z,102273.05
2019-02-12T23:40:50.608Z,102281.41
2019-02-12T23:43:24.072Z,102288.67
2019-02-12T23:45:57.482Z,102283.67
2019-02-12T23:48:30.862Z,102282.04
2019-02-12T23:51:04.413Z,102279.44
2019-02-12T23:53:37.894Z,102284.64
2019-02-12T23:56:12.212Z,102283.84
2019-02-12T23:58:45.723Z,102278.06
